createdAt,value
2017-09-24T00:02:25.296Z,14.77
2017-09-24T00:04:54.450Z,14.50
2017-09-24T00:07:23.053Z,14.60
2017-09-24T00:09:51.186Z,16.30
2017-09-24T00:12:19.296Z,15.80
2017-09-24T00:14:47.435Z,15.80
2017-09-24T00:17:15.593Z,16.47
2017-09-24T00:19:43.713Z,15.30
2017-09-24T00:22:12.625Z,17.37
2017-09-24T00:24:40.774Z,15.10
2017-09-24T00:27:08.899Z,15.20
2017-09-24T00:29:37.808Z,16.33
2017-09-24T00:32:05.920Z,15.47
2017-09-24T00:34:34.054Z,15.70
2017-09-24T00:37:02.983Z,15.40
2017-09-24T00:39:31.889Z,14.40
2017-09-24T00:42:00.039Z,15.07
2017-09-24T00:44:28.164Z,15.40
2017-09-24T00:46:56.309Z,14.50
2017-09-24T00:49:25.222Z,15.90
2017-09-24T00:51:53.415Z,16.40
2017-09-24T00:54:22.550Z,17.40
2017-09-24T00:56:50.920Z,18.20
2017-09-24T00:59:19.114Z,15.70
2017-09-24T01:01:47.327Z,14.97
2017-09-24T01:04:16.231Z,14.33
2017-09-24T01:06:44.389Z,14.60
2017-09-24T01:09:12.508Z,12.90
2017-09-24T01:11:40.657Z,14.17
2017-09-24T01:14:09.569Z,14.10
2017-09-24T01:16:37.672Z,14.80
2017-09-24T01:19:05.808Z,14.77
2017-09-24T01:21:34.042Z,15.60
2017-09-24T01:24:02.271Z,14.27
2017-09-24T01:26:30.389Z,15.10
2017-09-24T01:28:58.490Z,13.03
2017-09-24T01:31:26.615Z,14.80
2017-09-24T01:33:55.524Z,14.90
2017-09-24T01:36:23.716Z,14.40
2017-09-24T01:38:51.847Z,14.00
2017-09-24T01:41:19.959Z,13.40
2017-09-24T01:43:48.862Z,14.17
2017-09-24T01:46:17.737Z,14.33
2017-09-24T01:48:45.889Z,13.47
2017-09-24T01:51:14.003Z,13.07
2017-09-24T01:53:42.896Z,14.17
2017-09-24T01:56:11.042Z,12.70
2017-09-24T01:58:39.315Z,14.27
2017-09-24T02:01:08.102Z,13.57
2017-09-24T02:03:36.241Z,14.37
2017-09-24T02:06:04.358Z,16.70
2017-09-24T02:08:32.522Z,16.17
2017-09-24T02:11:00.653Z,16.80
2017-09-24T02:13:29.529Z,17.57
2017-09-24T02:15:57.703Z,16.67
2017-09-24T02:18:25.794Z,17.40
2017-09-24T02:20:53.944Z,17.90
2017-09-24T02:23:22.288Z,15.97
2017-09-24T02:25:50.440Z,19.00
2017-09-24T02:28:18.556Z,18.37
2017-09-24T02:30:46.714Z,20.10
2017-09-24T02:33:14.830Z,20.43
2017-09-24T02:35:43.823Z,20.10
2017-09-24T02:38:12.065Z,20.03
2017-09-24T02:40:40.200Z,18.47
2017-09-24T02:43:09.177Z,21.37
2017-09-24T02:45:37.367Z,19.23
2017-09-24T02:48:05.510Z,19.30
2017-09-24T02:50:34.400Z,22.07
2017-09-24T02:53:02.548Z,22.50
2017-09-24T02:55:30.696Z,23.40
2017-09-24T02:57:58.824Z,23.50
2017-09-24T03:00:26.942Z,22.07
2017-09-24T03:02:55.096Z,22.70
2017-09-24T03:05:23.194Z,24.30
2017-09-24T03:07:51.398Z,22.80
2017-09-24T03:10:19.737Z,25.50
2017-09-24T03:12:47.850Z,23.13
2017-09-24T03:15:15.988Z,23.10
2017-09-24T03:17:44.863Z,25.33
2017-09-24T03:20:13.026Z,22.50
2017-09-24T03:22:41.753Z,23.13
2017-09-24T03:25:09.886Z,25.50
2017-09-24T03:27:37.981Z,23.47
2017-09-24T03:30:06.093Z,24.33
2017-09-24T03:32:34.196Z,25.10
2017-09-24T03:35:03.740Z,24.63
2017-09-24T03:37:31.865Z,24.50
2017-09-24T03:40:00.771Z,26.97
2017-09-24T03:42:29.069Z,26.57
2017-09-24T03:44:58.991Z,28.23
2017-09-24T03:47:27.872Z,27.30
2017-09-24T03:49:56.791Z,27.03
2017-09-24T03:52:24.986Z,26.17
2017-09-24T03:54:53.102Z,24.20
2017-09-24T03:57:21.239Z,26.13
2017-09-24T03:59:49.435Z,26.33
2017-09-24T04:02:17.610Z,26.00
2017-09-24T04:04:46.484Z,27.33
2017-09-24T04:07:15.349Z,28.70
2017-09-24T04:09:44.214Z,30.97
2017-09-24T04:12:12.351Z,28.90
2017-09-24T04:14:40.462Z,31.10
2017-09-24T04:17:08.619Z,29.33
2017-09-24T04:19:36.740Z,29.47
2017-09-24T04:22:04.867Z,29.63
2017-09-24T04:24:33.717Z,33.77
2017-09-24T04:27:01.874Z,32.80
2017-09-24T04:29:29.983Z,31.67
2017-09-24T04:31:58.132Z,31.57
2017-09-24T04:34:26.239Z,31.17
2017-09-24T04:36:54.413Z,30.37
2017-09-24T04:39:22.513Z,31.50
2017-09-24T04:41:51.409Z,32.57
2017-09-24T04:44:19.531Z,31.97
2017-09-24T04:46:47.650Z,32.13
2017-09-24T04:49:16.533Z,27.37
2017-09-24T04:51:44.668Z,30.63
2017-09-24T04:54:12.774Z,33.73
2017-09-24T04:56:41.661Z,30.53
2017-09-24T04:59:11.862Z,31.47
2017-09-24T05:01:41.007Z,29.70
2017-09-24T05:04:09.974Z,32.93
2017-09-24T05:06:38.111Z,29.60
2017-09-24T05:09:10.707Z,31.37
2017-09-24T05:11:40.481Z,31.23
2017-09-24T05:14:09.351Z,31.53
2017-09-24T05:16:38.243Z,31.93
2017-09-24T05:19:06.363Z,30.53
2017-09-24T05:21:35.283Z,31.40
2017-09-24T05:24:03.422Z,29.47
2017-09-24T05:26:32.299Z,30.50
2017-09-24T05:29:01.270Z,30.13
2017-09-24T05:31:29.414Z,28.33
2017-09-24T05:33:57.547Z,29.43
2017-09-24T05:36:25.677Z,28.47
2017-09-24T05:38:54.589Z,30.37
2017-09-24T05:41:22.699Z,29.07
2017-09-24T05:43:51.538Z,29.77
2017-09-24T05:46:19.713Z,28.90
2017-09-24T05:48:47.843Z,29.33
2017-09-24T05:51:16.731Z,29.50
2017-09-24T05:53:45.417Z,29.97
2017-09-24T05:56:13.532Z,26.20
2017-09-24T05:58:41.658Z,28.40
2017-09-24T06:01:11.081Z,27.13
2017-09-24T06:03:39.427Z,26.40
2017-09-24T06:06:07.618Z,26.63
2017-09-24T06:08:36.529Z,27.50
2017-09-24T06:11:04.675Z,27.47
2017-09-24T06:13:33.589Z,26.47
2017-09-24T06:16:01.710Z,27.53
2017-09-24T06:18:29.861Z,25.60
2017-09-24T06:21:02.135Z,27.77
2017-09-24T06:23:32.019Z,25.63
2017-09-24T06:26:00.123Z,27.40
2017-09-24T06:28:28.238Z,26.80
2017-09-24T06:30:56.463Z,26.90
2017-09-24T06:33:24.751Z,27.83
2017-09-24T06:35:53.943Z,27.47
2017-09-24T06:38:22.293Z,27.40
2017-09-24T06:40:50.880Z,26.07
2017-09-24T06:43:19.022Z,26.73
2017-09-24T06:45:48.039Z,26.70
2017-09-24T06:48:16.194Z,25.97
2017-09-24T06:50:44.443Z,26.23
2017-09-24T06:53:13.459Z,27.60
2017-09-24T06:55:42.190Z,27.80
2017-09-24T06:58:10.396Z,26.33
2017-09-24T07:00:38.777Z,24.60
2017-09-24T07:03:06.904Z,25.23
2017-09-24T07:05:35.181Z,26.63
2017-09-24T07:08:03.290Z,27.10
2017-09-24T07:10:31.410Z,27.67
2017-09-24T07:12:59.560Z,24.80
2017-09-24T07:15:27.692Z,27.60
2017-09-24T07:17:55.805Z,26.63
2017-09-24T07:20:23.943Z,27.10
2017-09-24T07:22:52.049Z,25.63
2017-09-24T07:25:20.199Z,27.33
2017-09-24T07:27:49.089Z,27.40
2017-09-24T07:30:17.241Z,28.00
2017-09-24T07:32:45.403Z,26.00
2017-09-24T07:35:13.716Z,28.73
2017-09-24T07:37:41.931Z,28.23
2017-09-24T07:40:10.065Z,25.90
2017-09-24T07:42:38.259Z,25.03
2017-09-24T07:45:06.341Z,27.17
2017-09-24T07:47:35.233Z,28.47
2017-09-24T07:50:03.366Z,26.40
2017-09-24T07:52:31.480Z,28.40
2017-09-24T07:54:59.718Z,28.30
2017-09-24T07:57:28.977Z,26.53
2017-09-24T07:59:58.758Z,30.77
2017-09-24T08:02:27.670Z,27.50
2017-09-24T08:04:55.817Z,31.23
2017-09-24T08:07:23.931Z,28.53
2017-09-24T08:09:52.354Z,29.30
2017-09-24T08:12:20.481Z,32.17
2017-09-24T08:14:48.810Z,27.80
2017-09-24T08:17:17.044Z,28.97
2017-09-24T08:19:45.141Z,30.10
2017-09-24T08:22:13.301Z,29.93
2017-09-24T08:24:41.401Z,29.50
2017-09-24T08:27:09.501Z,28.83
2017-09-24T08:29:37.650Z,28.73
2017-09-24T08:32:05.776Z,29.00
2017-09-24T08:34:35.541Z,27.23
2017-09-24T08:37:04.371Z,28.00
2017-09-24T08:39:33.111Z,30.20
2017-09-24T08:42:01.213Z,29.17
2017-09-24T08:44:29.326Z,27.93
2017-09-24T08:46:57.483Z,30.53
2017-09-24T08:49:26.358Z,29.00
2017-09-24T08:51:54.485Z,29.43
2017-09-24T08:54:22.742Z,31.43
2017-09-24T08:56:51.150Z,29.20
2017-09-24T08:59:22.072Z,28.13
2017-09-24T09:01:51.293Z,29.53
2017-09-24T09:04:20.222Z,29.53
2017-09-24T09:06:48.339Z,27.70
2017-09-24T09:09:17.428Z,28.73
2017-09-24T09:11:46.769Z,27.60
2017-09-24T09:14:15.329Z,26.90
2017-09-24T09:16:43.820Z,25.57
2017-09-24T09:19:12.167Z,25.60
2017-09-24T09:21:46.031Z,26.57
2017-09-24T09:24:14.153Z,25.87
2017-09-24T09:26:42.278Z,25.57
2017-09-24T09:29:10.396Z,27.97
2017-09-24T09:31:38.574Z,26.70
2017-09-24T09:34:18.541Z,23.47
2017-09-24T09:36:46.751Z,24.70
2017-09-24T09:39:14.914Z,24.07
2017-09-24T09:41:43.066Z,23.80
2017-09-24T09:44:23.601Z,24.97
2017-09-24T09:46:59.481Z,21.67
2017-09-24T09:49:27.644Z,24.23
2017-09-24T09:51:55.771Z,21.80
2017-09-24T09:54:24.852Z,22.97
2017-09-24T09:56:52.969Z,22.83
2017-09-24T09:59:21.827Z,21.77
2017-09-24T10:01:50.724Z,21.77
2017-09-24T10:04:18.850Z,22.27
2017-09-24T10:06:58.765Z,19.13
2017-09-24T10:09:38.563Z,18.97
2017-09-24T10:12:06.745Z,20.40
2017-09-24T10:14:34.855Z,20.03
2017-09-24T10:17:02.999Z,21.13
2017-09-24T10:19:31.108Z,21.03
2017-09-24T10:21:59.479Z,18.20
2017-09-24T10:24:28.409Z,16.17
2017-09-24T10:26:58.870Z,16.57
2017-09-24T10:29:28.053Z,17.00
2017-09-24T10:32:04.173Z,16.40
2017-09-24T10:34:33.264Z,16.70
2017-09-24T10:37:01.376Z,16.57
2017-09-24T10:39:30.689Z,16.13
2017-09-24T10:41:59.889Z,15.80
2017-09-24T10:44:28.169Z,16.27
2017-09-24T10:46:56.330Z,13.80
2017-09-24T10:49:24.452Z,15.57
2017-09-24T10:51:52.589Z,14.93
2017-09-24T10:54:20.758Z,71.30
2017-09-24T10:56:48.956Z,15.10
2017-09-24T10:59:19.789Z,13.30
2017-09-24T11:01:48.200Z,13.13
2017-09-24T11:04:17.102Z,13.23
2017-09-24T11:06:45.205Z,12.27
2017-09-24T11:09:14.103Z,13.20
2017-09-24T11:11:42.292Z,13.37
2017-09-24T11:14:10.439Z,12.30
2017-09-24T11:16:38.528Z,10.80
2017-09-24T11:19:06.642Z,15.43
2017-09-24T11:21:35.611Z,14.67
2017-09-24T11:24:03.708Z,13.60
2017-09-24T11:26:31.857Z,13.80
2017-09-24T11:28:59.979Z,12.63
2017-09-24T11:31:28.113Z,13.00
2017-09-24T11:33:56.360Z,12.90
2017-09-24T11:36:24.475Z,13.80
2017-09-24T11:38:52.621Z,12.90
2017-09-24T11:41:20.725Z,13.90
2017-09-24T11:43:49.660Z,14.50
2017-09-24T11:46:18.603Z,15.67
2017-09-24T11:48:46.720Z,14.17
2017-09-24T11:51:14.840Z,12.43
2017-09-24T11:53:43.096Z,12.23
2017-09-24T11:56:11.945Z,13.20
2017-09-24T11:58:40.059Z,12.90
2017-09-24T12:01:08.173Z,14.73
2017-09-24T12:03:36.323Z,13.43
2017-09-24T12:06:05.204Z,11.47
2017-09-24T12:08:33.332Z,12.10
2017-09-24T12:11:01.471Z,11.83
2017-09-24T12:13:30.366Z,12.93
2017-09-24T12:15:58.577Z,12.60
2017-09-24T12:18:26.683Z,13.23
2017-09-24T12:20:54.815Z,12.97
2017-09-24T12:23:22.953Z,12.30
2017-09-24T12:25:51.064Z,11.83
2017-09-24T12:28:19.230Z,10.80
2017-09-24T12:30:47.317Z,10.93
2017-09-24T12:33:15.463Z,11.03
2017-09-24T12:35:43.714Z,12.27
2017-09-24T12:38:11.830Z,10.17
2017-09-24T12:40:40.009Z,10.50
2017-09-24T12:43:08.131Z,10.70
2017-09-24T12:45:36.311Z,10.33
2017-09-24T12:48:04.473Z,10.87
2017-09-24T12:50:32.587Z,9.67
2017-09-24T12:53:00.898Z,10.57
2017-09-24T12:55:29.793Z,10.30
2017-09-24T12:57:57.948Z,11.10
2017-09-24T13:00:26.043Z,9.60
2017-09-24T13:02:54.920Z,9.90
2017-09-24T13:05:23.014Z,9.57
2017-09-24T13:07:51.124Z,9.33
2017-09-24T13:10:19.245Z,8.93
2017-09-24T13:12:47.351Z,8.80
2017-09-24T13:15:17.000Z,10.10
2017-09-24T13:17:45.116Z,9.13
2017-09-24T13:20:13.347Z,9.67
2017-09-24T13:22:41.483Z,9.63
2017-09-24T13:25:10.380Z,9.30
2017-09-24T13:27:38.501Z,9.97
2017-09-24T13:30:06.644Z,10.03
2017-09-24T13:32:34.769Z,11.37
2017-09-24T13:35:02.939Z,10.13
2017-09-24T13:37:31.073Z,9.20
2017-09-24T13:39:59.181Z,9.27
2017-09-24T13:42:27.310Z,7.80
2017-09-24T13:44:55.396Z,8.67
2017-09-24T13:47:23.498Z,8.40
2017-09-24T13:49:51.620Z,9.03
2017-09-24T13:52:19.727Z,9.43
2017-09-24T13:54:47.841Z,8.90
2017-09-24T13:57:16.853Z,8.30
2017-09-24T13:59:44.946Z,9.57
2017-09-24T14:02:13.067Z,10.07
2017-09-24T14:04:41.969Z,8.27
2017-09-24T14:07:10.061Z,8.40
2017-09-24T14:09:38.147Z,7.50
2017-09-24T14:12:06.250Z,8.73
2017-09-24T14:14:35.133Z,8.80
2017-09-24T14:17:03.252Z,8.53
2017-09-24T14:19:31.834Z,8.70
2017-09-24T14:21:59.937Z,9.40
2017-09-24T14:24:28.834Z,9.40
2017-09-24T14:26:56.925Z,8.30
2017-09-24T14:29:25.780Z,8.57
2017-09-24T14:31:53.882Z,8.30
2017-09-24T14:34:21.985Z,8.73
2017-09-24T14:36:51.530Z,8.70
2017-09-24T14:39:19.658Z,8.53
2017-09-24T14:41:47.799Z,8.53
2017-09-24T14:44:15.962Z,8.90
2017-09-24T14:46:44.845Z,9.40
2017-09-24T14:49:13.729Z,10.03
2017-09-24T14:51:41.880Z,9.13
2017-09-24T14:54:09.982Z,9.80
2017-09-24T14:56:38.115Z,9.33
2017-09-24T14:59:07.033Z,9.00
2017-09-24T15:01:35.160Z,10.50
2017-09-24T15:04:04.137Z,9.90
2017-09-24T15:06:32.233Z,10.40
2017-09-24T15:09:00.332Z,9.90
2017-09-24T15:11:28.449Z,10.10
2017-09-24T15:13:56.540Z,9.83
2017-09-24T15:16:24.666Z,10.77
2017-09-24T15:18:52.764Z,10.90
2017-09-24T15:21:20.913Z,10.47
2017-09-24T15:23:49.014Z,11.07
2017-09-24T15:26:17.102Z,12.00
2017-09-24T15:28:45.258Z,12.40
2017-09-24T15:31:13.395Z,12.87
2017-09-24T15:33:41.523Z,13.13
2017-09-24T15:36:09.795Z,13.60
2017-09-24T15:38:37.957Z,12.30
2017-09-24T15:41:06.089Z,13.43
2017-09-24T15:43:34.250Z,12.13
2017-09-24T15:46:02.374Z,12.77
2017-09-24T15:48:30.578Z,13.80
2017-09-24T15:50:58.713Z,12.97
2017-09-24T15:53:26.825Z,14.00
2017-09-24T15:55:54.977Z,12.00
2017-09-24T15:58:23.061Z,14.00
2017-09-24T16:00:51.351Z,13.53
2017-09-24T16:03:19.481Z,14.60
2017-09-24T16:05:47.588Z,14.80
2017-09-24T16:08:15.670Z,13.80
2017-09-24T16:10:43.816Z,15.07
2017-09-24T16:13:11.930Z,20.27
2017-09-24T16:15:40.082Z,17.10
2017-09-24T16:18:08.206Z,16.37
2017-09-24T16:20:36.303Z,21.60
2017-09-24T16:23:04.453Z,16.30
2017-09-24T16:25:32.574Z,14.63
2017-09-24T16:28:00.696Z,16.63
2017-09-24T16:30:28.832Z,15.77
2017-09-24T16:32:56.941Z,16.37
2017-09-24T16:35:25.845Z,15.10
2017-09-24T16:37:53.976Z,15.77
2017-09-24T16:40:22.083Z,15.47
2017-09-24T16:42:50.505Z,16.50
2017-09-24T16:45:18.618Z,16.10
2017-09-24T16:47:47.501Z,17.40
2017-09-24T16:50:15.607Z,17.87
2017-09-24T16:52:43.751Z,16.93
2017-09-24T16:55:11.876Z,15.80
2017-09-24T16:57:39.979Z,15.77
2017-09-24T17:00:08.088Z,17.70
2017-09-24T17:02:36.330Z,18.03
2017-09-24T17:05:05.366Z,17.43
2017-09-24T17:07:33.951Z,18.33
2017-09-24T17:10:02.215Z,17.60
2017-09-24T17:12:30.396Z,17.10
2017-09-24T17:14:58.510Z,18.10
2017-09-24T17:17:26.702Z,18.07
2017-09-24T17:19:55.629Z,18.13
2017-09-24T17:22:23.763Z,17.67
2017-09-24T17:24:51.967Z,18.57
2017-09-24T17:27:21.579Z,17.93
2017-09-24T17:29:49.712Z,20.40
2017-09-24T17:32:17.842Z,18.70
2017-09-24T17:34:45.957Z,20.57
2017-09-24T17:37:14.801Z,18.93
2017-09-24T17:39:43.748Z,20.47
2017-09-24T17:42:12.015Z,20.17
2017-09-24T17:44:40.096Z,19.67
2017-09-24T17:47:08.982Z,19.00
2017-09-24T17:49:37.123Z,20.50
2017-09-24T17:52:05.235Z,21.77
2017-09-24T17:54:34.439Z,20.97
2017-09-24T17:57:02.554Z,21.57
2017-09-24T17:59:33.367Z,20.90
2017-09-24T18:02:10.324Z,20.00
2017-09-24T18:04:38.641Z,20.97
2017-09-24T18:07:07.314Z,20.67
2017-09-24T18:09:35.710Z,24.43
2017-09-24T18:12:05.631Z,21.40
2017-09-24T18:14:34.182Z,21.23
2017-09-24T18:17:02.835Z,22.53
2017-09-24T18:19:31.705Z,21.57
2017-09-24T18:22:01.294Z,22.47
2017-09-24T18:24:29.495Z,21.50
2017-09-24T18:26:59.107Z,21.70
2017-09-24T18:29:27.198Z,22.03
2017-09-24T18:31:55.384Z,21.40
2017-09-24T18:34:23.544Z,43.13
2017-09-24T18:36:53.200Z,29.87
2017-09-24T18:39:21.372Z,38.77
2017-09-24T18:41:49.513Z,31.40
2017-09-24T18:44:17.605Z,24.77
2017-09-24T18:46:45.922Z,23.77
2017-09-24T18:49:14.814Z,26.57
2017-09-24T18:51:42.938Z,26.00
2017-09-24T18:54:11.821Z,23.57
2017-09-24T18:56:40.714Z,24.00
2017-09-24T18:59:08.812Z,24.63
2017-09-24T19:01:36.939Z,23.47
2017-09-24T19:04:05.925Z,25.10
2017-09-24T19:06:34.073Z,24.90
2017-09-24T19:09:02.227Z,26.77
2017-09-24T19:11:30.488Z,25.93
2017-09-24T19:13:58.641Z,26.00
2017-09-24T19:16:26.828Z,26.73
2017-09-24T19:18:54.985Z,27.20
2017-09-24T19:21:26.700Z,27.40
2017-09-24T19:23:55.378Z,26.53
2017-09-24T19:26:23.575Z,25.47
2017-09-24T19:28:51.676Z,26.50
2017-09-24T19:31:19.829Z,23.77
2017-09-24T19:33:48.074Z,119.03
2017-09-24T19:36:16.301Z,67.10
2017-09-24T19:38:44.421Z,71.37
2017-09-24T19:41:12.680Z,106.43
2017-09-24T19:43:40.821Z,70.73
2017-09-24T19:46:09.038Z,46.50
2017-09-24T19:48:37.170Z,86.47
2017-09-24T19:51:05.285Z,42.27
2017-09-24T19:53:34.768Z,37.53
2017-09-24T19:56:03.049Z,29.23
2017-09-24T19:58:31.910Z,30.77
2017-09-24T20:01:00.067Z,26.57
2017-09-24T20:03:28.165Z,26.67
2017-09-24T20:05:56.286Z,25.87
2017-09-24T20:08:24.452Z,26.00
2017-09-24T20:10:52.570Z,24.70
2017-09-24T20:13:20.699Z,24.20
2017-09-24T20:15:48.916Z,24.50
2017-09-24T20:18:17.771Z,25.27
2017-09-24T20:20:45.861Z,25.17
2017-09-24T20:23:14.051Z,26.00
2017-09-24T20:25:44.302Z,24.70
2017-09-24T20:28:12.581Z,25.13
2017-09-24T20:30:40.748Z,23.37
2017-09-24T20:33:09.641Z,24.23
2017-09-24T20:35:38.615Z,26.10
2017-09-24T20:38:06.992Z,25.17
2017-09-24T20:40:35.884Z,23.60
2017-09-24T20:43:04.068Z,23.90
2017-09-24T20:45:32.226Z,23.63
2017-09-24T20:48:00.317Z,25.63
2017-09-24T20:50:28.472Z,25.07
2017-09-24T20:52:56.561Z,23.87
2017-09-24T20:55:24.891Z,23.77
2017-09-24T20:57:53.229Z,23.67
2017-09-24T21:00:22.236Z,31.67
2017-09-24T21:02:50.391Z,68.57
2017-09-24T21:05:18.505Z,65.17
2017-09-24T21:07:46.637Z,84.63
2017-09-24T21:10:24.232Z,106.10
2017-09-24T21:12:52.498Z,36.50
2017-09-24T21:15:28.064Z,58.97
2017-09-24T21:17:59.740Z,46.77
2017-09-24T21:20:32.780Z,87.10
2017-09-24T21:23:19.246Z,50.27
2017-09-24T21:25:48.053Z,32.77
2017-09-24T21:28:16.240Z,45.00
2017-09-24T21:30:44.344Z,30.93
2017-09-24T21:33:12.533Z,25.47
2017-09-24T21:35:40.670Z,26.17
2017-09-24T21:38:08.799Z,28.10
2017-09-24T21:40:37.783Z,24.43
2017-09-24T21:43:06.365Z,22.50
2017-09-24T21:45:35.980Z,24.10
2017-09-24T21:48:04.195Z,21.97
2017-09-24T21:50:33.896Z,23.53
2017-09-24T21:53:02.063Z,21.77
2017-09-24T21:55:31.435Z,21.17
2017-09-24T21:57:59.843Z,24.77
2017-09-24T22:00:27.950Z,21.87
2017-09-24T22:02:56.345Z,23.00
2017-09-24T22:05:24.872Z,20.80
2017-09-24T22:07:53.200Z,22.50
2017-09-24T22:10:21.328Z,20.40
2017-09-24T22:12:49.473Z,19.80
2017-09-24T22:15:17.681Z,20.00
2017-09-24T22:17:45.783Z,20.07
2017-09-24T22:20:13.976Z,20.50
2017-09-24T22:22:42.128Z,20.43
2017-09-24T22:25:10.269Z,21.37
2017-09-24T22:27:38.393Z,19.90
2017-09-24T22:30:06.543Z,18.33
2017-09-24T22:32:34.659Z,20.03
2017-09-24T22:35:02.833Z,19.80
2017-09-24T22:37:31.755Z,20.43
2017-09-24T22:40:00.503Z,20.70
2017-09-24T22:42:28.737Z,19.30
2017-09-24T22:44:57.597Z,20.50
2017-09-24T22:47:25.807Z,20.10
2017-09-24T22:49:54.711Z,20.03
2017-09-24T22:52:22.841Z,21.80
2017-09-24T22:54:50.993Z,21.20
2017-09-24T22:57:19.289Z,19.80
2017-09-24T22:59:47.492Z,23.20
2017-09-24T23:02:16.394Z,21.90
2017-09-24T23:04:44.518Z,21.73
2017-09-24T23:07:12.691Z,21.00
2017-09-24T23:09:40.838Z,23.03
2017-09-24T23:12:10.326Z,20.20
2017-09-24T23:14:38.454Z,20.73
2017-09-24T23:17:07.317Z,20.93
2017-09-24T23:19:35.434Z,21.10
2017-09-24T23:22:03.556Z,22.23
2017-09-24T23:24:31.674Z,22.40
2017-09-24T23:26:59.787Z,22.00
2017-09-24T23:29:27.915Z,20.90
2017-09-24T23:31:56.049Z,20.80
2017-09-24T23:34:24.244Z,20.97
2017-09-24T23:36:53.148Z,22.37
2017-09-24T23:39:21.279Z,22.87
2017-09-24T23:41:49.375Z,24.03
2017-09-24T23:44:17.495Z,22.80
2017-09-24T23:46:45.665Z,23.20
2017-09-24T23:49:13.797Z,23.30
2017-09-24T23:51:41.894Z,23.00
2017-09-24T23:54:10.007Z,23.20
2017-09-24T23:56:38.113Z,20.93
2017-09-24T23:59:06.255Z,21.77
